Time;durP1;ratioP1;P1;durP2;ratioP2;P2;SDS_P1;SDS_P2;PMS_P1;PMS_P2;Temp;Humidity;BMP_temperature;BMP_pressure;BME280_temperature;BME280_humidity;BME280_pressure;Samples;Min_cycle;Max_cycle;Signal;HPM_P1;HPM_P2
2023/08/16 00:00:55;;;;;;;2.00;1.57;;;;;;;;;;4893336;28;20462;-70
2023/08/16 00:03:21;;;;;;;2.17;1.70;;;;;;;;;;4894459;29;20525;-71
2023/08/16 00:05:47;;;;;;;1.33;1.33;;;;;;;;;;4892699;28;20457;-73
2023/08/16 00:08:13;;;;;;;2.47;1.80;;;;;;;;;;4893034;28;20446;-72
2023/08/16 00:10:39;;;;;;;4.07;1.37;;;;;;;;;;4893274;28;20532;-74
2023/08/16 00:13:06;;;;;;;4.33;1.50;;;;;;;;;;4893548;29;20528;-72
2023/08/16 00:15:32;;;;;;;1.70;1.70;;;;;;;;;;4892672;28;20500;-73
2023/08/16 00:17:58;;;;;;;1.53;1.53;;;;;;;;;;4894055;28;20480;-71
2023/08/16 00:20:27;;;;;;;1.67;1.63;;;;;;;;;;4893854;28;20509;-74
2023/08/16 00:22:53;;;;;;;4.80;1.53;;;;;;;;;;4892791;29;20802;-70
2023/08/16 00:25:20;;;;;;;1.30;1.30;;;;;;;;;;4894368;28;20532;-74
2023/08/16 00:27:46;;;;;;;1.57;1.57;;;;;;;;;;4893371;28;20436;-73
2023/08/16 00:30:12;;;;;;;1.50;1.50;;;;;;;;;;4893225;28;20460;-75
2023/08/16 00:32:38;;;;;;;1.63;1.57;;;;;;;;;;4893654;28;20456;-70
2023/08/16 00:35:05;;;;;;;2.30;1.20;;;;;;;;;;4894027;28;20497;-70
2023/08/16 00:37:31;;;;;;;9.63;1.87;;;;;;;;;;4893281;28;20988;-72
2023/08/16 00:39:57;;;;;;;4.23;1.67;;;;;;;;;;4893726;28;20473;-73
2023/08/16 00:42:23;;;;;;;2.33;1.40;;;;;;;;;;4893780;28;20426;-72
2023/08/16 00:44:49;;;;;;;5.20;1.93;;;;;;;;;;4893101;29;20496;-71
2023/08/16 00:47:15;;;;;;;1.67;1.57;;;;;;;;;;4893234;28;20488;-71
2023/08/16 00:49:41;;;;;;;2.30;1.80;;;;;;;;;;4893729;28;20446;-74
2023/08/16 00:52:08;;;;;;;1.67;1.67;;;;;;;;;;4892458;28;20464;-73
2023/08/16 00:54:34;;;;;;;2.47;1.40;;;;;;;;;;4893475;28;21748;-70
2023/08/16 00:57:01;;;;;;;1.30;1.30;;;;;;;;;;4893030;28;20524;-73
2023/08/16 00:59:27;;;;;;;1.70;1.70;;;;;;;;;;4893132;28;20811;-72
2023/08/16 01:01:53;;;;;;;1.03;1.03;;;;;;;;;;4893078;28;20453;-71
2023/08/16 01:04:20;;;;;;;1.57;1.57;;;;;;;;;;4892988;28;20430;-72
2023/08/16 01:06:46;;;;;;;2.13;2.03;;;;;;;;;;4892780;28;20540;-71
2023/08/16 01:09:12;;;;;;;1.70;1.70;;;;;;;;;;4892789;28;20448;-74
2023/08/16 01:11:38;;;;;;;1.60;1.57;;;;;;;;;;4890874;28;20457;-71
2023/08/16 01:14:13;;;;;;;1.83;1.63;;;;;;;;;;4892026;28;20465;-71
2023/08/16 01:16:40;;;;;;;2.60;1.70;;;;;;;;;;4893353;28;20339;-75
2023/08/16 01:19:10;;;;;;;2.00;1.77;;;;;;;;;;4891361;28;20535;-73
2023/08/16 01:21:42;;;;;;;2.03;1.83;;;;;;;;;;4892044;28;21521;-73
2023/08/16 01:24:26;;;;;;;1.63;1.63;;;;;;;;;;4892204;28;20430;-72
2023/08/16 01:26:53;;;;;;;6.30;1.97;;;;;;;;;;4892554;28;20457;-71
2023/08/16 01:29:20;;;;;;;3.30;2.00;;;;;;;;;;4890285;28;21029;-74
2023/08/16 01:31:46;;;;;;;1.60;1.60;;;;;;;;;;4890336;28;20461;-69
2023/08/16 01:34:12;;;;;;;2.27;2.07;;;;;;;;;;4892622;29;20433;-69
2023/08/16 01:36:38;;;;;;;2.30;2.20;;;;;;;;;;4892161;28;20454;-71
2023/08/16 01:39:04;;;;;;;7.60;2.10;;;;;;;;;;4891324;28;20450;-70
2023/08/16 01:41:43;;;;;;;2.10;2.00;;;;;;;;;;4891771;29;20446;-73
2023/08/16 01:44:09;;;;;;;2.17;1.97;;;;;;;;;;4891521;28;20567;-74
2023/08/16 01:46:35;;;;;;;2.17;2.07;;;;;;;;;;4890333;28;20461;-72
2023/08/16 01:49:02;;;;;;;2.70;2.50;;;;;;;;;;4891606;28;20457;-69
2023/08/16 01:51:28;;;;;;;2.07;2.07;;;;;;;;;;4893485;29;20492;-71
2023/08/16 01:53:54;;;;;;;2.33;2.20;;;;;;;;;;4892273;28;20461;-70
2023/08/16 01:56:20;;;;;;;1.90;1.90;;;;;;;;;;4891603;29;20553;-71
2023/08/16 01:58:46;;;;;;;1.90;1.80;;;;;;;;;;4891307;28;20430;-71
2023/08/16 02:01:13;;;;;;;1.90;1.60;;;;;;;;;;4891271;28;20830;-69
2023/08/16 02:03:39;;;;;;;2.07;1.77;;;;;;;;;;4892729;29;20465;-72
2023/08/16 02:06:05;;;;;;;1.87;1.80;;;;;;;;;;4891594;28;20548;-75
2023/08/16 02:08:31;;;;;;;2.63;1.87;;;;;;;;;;4892307;28;20422;-70
2023/08/16 02:10:57;;;;;;;1.73;1.63;;;;;;;;;;4893184;29;20934;-70
2023/08/16 02:13:23;;;;;;;1.93;1.93;;;;;;;;;;4892527;29;20787;-75
2023/08/16 02:15:49;;;;;;;2.00;1.90;;;;;;;;;;4891913;28;20500;-75
2023/08/16 02:18:15;;;;;;;2.93;2.17;;;;;;;;;;4891846;28;20489;-71
2023/08/16 02:20:41;;;;;;;1.90;1.90;;;;;;;;;;4892739;29;20481;-72
2023/08/16 02:23:08;;;;;;;1.87;1.77;;;;;;;;;;4891245;28;20571;-73
2023/08/16 02:25:35;;;;;;;4.30;2.03;;;;;;;;;;4892667;28;22053;-73
2023/08/16 02:28:01;;;;;;;14.30;2.00;;;;;;;;;;4892369;28;20472;-70
2023/08/16 02:30:27;;;;;;;2.97;1.90;;;;;;;;;;4891942;28;20446;-75
2023/08/16 02:32:57;;;;;;;2.20;2.10;;;;;;;;;;4892360;29;20434;-74
2023/08/16 02:35:23;;;;;;;3.00;2.70;;;;;;;;;;4892496;29;20497;-75
2023/08/16 02:37:49;;;;;;;1.80;1.80;;;;;;;;;;4892153;28;20515;-75
2023/08/16 02:40:15;;;;;;;1.90;1.80;;;;;;;;;;4889760;28;20444;-69
2023/08/16 02:42:41;;;;;;;6.17;1.57;;;;;;;;;;4892158;28;20433;-73
2023/08/16 02:45:07;;;;;;;1.50;1.50;;;;;;;;;;4890811;29;20453;-73
2023/08/16 02:47:33;;;;;;;9.00;1.87;;;;;;;;;;4890999;28;20244;-74
2023/08/16 02:49:59;;;;;;;1.00;1.00;;;;;;;;;;4891661;28;20437;-69
2023/08/16 02:52:25;;;;;;;3.30;1.80;;;;;;;;;;4891574;29;20521;-71
2023/08/16 02:54:51;;;;;;;0.93;0.93;;;;;;;;;;4896069;28;20497;-68
2023/08/16 02:57:18;;;;;;;1.93;1.93;;;;;;;;;;4891793;28;20437;-68
2023/08/16 02:59:47;;;;;;;1.33;1.30;;;;;;;;;;4890487;28;20448;-68
2023/08/16 03:02:16;;;;;;;3.80;2.50;;;;;;;;;;4891924;28;20862;-68
2023/08/16 03:04:42;;;;;;;1.70;1.70;;;;;;;;;;4892334;29;20441;-70
2023/08/16 03:07:09;;;;;;;2.00;1.90;;;;;;;;;;4890955;28;20430;-71
2023/08/16 03:09:35;;;;;;;3.13;2.77;;;;;;;;;;4891007;28;20433;-69
2023/08/16 03:12:01;;;;;;;2.10;1.70;;;;;;;;;;4891380;28;20480;-68
2023/08/16 03:14:28;;;;;;;2.40;1.60;;;;;;;;;;4891408;28;21076;-70
2023/08/16 03:16:54;;;;;;;2.67;1.60;;;;;;;;;;4891470;28;20441;-68
2023/08/16 03:19:20;;;;;;;4.00;1.73;;;;;;;;;;4891236;29;20473;-70
2023/08/16 03:21:46;;;;;;;2.07;1.97;;;;;;;;;;4891567;29;20446;-70
2023/08/16 03:24:12;;;;;;;2.40;2.00;;;;;;;;;;4890726;28;20930;-70
2023/08/16 03:26:38;;;;;;;1.30;1.30;;;;;;;;;;4891055;28;20448;-72
2023/08/16 03:29:04;;;;;;;4.93;2.60;;;;;;;;;;4894353;28;20842;-74
2023/08/16 03:31:30;;;;;;;1.93;1.90;;;;;;;;;;4894840;28;20938;-75
2023/08/16 03:33:57;;;;;;;2.47;2.47;;;;;;;;;;4894915;29;20918;-75
2023/08/16 03:36:23;;;;;;;3.13;2.83;;;;;;;;;;4894585;29;20525;-76
2023/08/16 03:38:49;;;;;;;2.67;2.57;;;;;;;;;;4894053;28;20889;-74
2023/08/16 03:41:15;;;;;;;7.70;2.67;;;;;;;;;;4894420;29;20441;-74
2023/08/16 03:43:41;;;;;;;2.90;2.40;;;;;;;;;;4894337;28;20437;-75
2023/08/16 03:46:07;;;;;;;5.07;2.47;;;;;;;;;;4895019;28;20193;-74
2023/08/16 03:48:33;;;;;;;4.63;2.70;;;;;;;;;;4894712;28;20449;-73
2023/08/16 03:50:59;;;;;;;3.00;2.90;;;;;;;;;;4894991;29;20517;-70
2023/08/16 03:53:25;;;;;;;2.40;2.30;;;;;;;;;;4893365;28;20496;-72
2023/08/16 03:55:57;;;;;;;2.43;2.43;;;;;;;;;;4894488;28;20485;-72
2023/08/16 03:58:23;;;;;;;7.93;2.40;;;;;;;;;;4894689;29;20422;-73
2023/08/16 04:00:51;;;;;;;2.60;2.50;;;;;;;;;;4893519;29;20453;-74
2023/08/16 04:03:17;;;;;;;3.00;2.80;;;;;;;;;;4894997;29;20516;-73
2023/08/16 04:05:43;;;;;;;3.50;3.30;;;;;;;;;;4893359;28;20540;-73
2023/08/16 04:08:09;;;;;;;7.17;3.37;;;;;;;;;;4894211;28;20437;-74
2023/08/16 04:10:35;;;;;;;4.53;3.30;;;;;;;;;;4894762;28;20913;-75
2023/08/16 04:13:01;;;;;;;13.03;3.63;;;;;;;;;;4894387;28;20410;-72
2023/08/16 04:15:27;;;;;;;2.63;2.63;;;;;;;;;;4895002;29;20485;-72
2023/08/16 04:17:54;;;;;;;3.10;3.00;;;;;;;;;;4894221;28;20983;-73
2023/08/16 04:20:20;;;;;;;2.53;2.40;;;;;;;;;;4893599;28;20985;-71
2023/08/16 04:22:46;;;;;;;8.57;3.40;;;;;;;;;;4893586;28;20438;-74
2023/08/16 04:25:12;;;;;;;6.80;2.80;;;;;;;;;;4894044;29;20856;-72
2023/08/16 04:27:38;;;;;;;2.97;2.77;;;;;;;;;;4894601;29;20433;-72
2023/08/16 04:30:05;;;;;;;3.90;3.23;;;;;;;;;;4894166;28;20430;-71
2023/08/16 04:32:31;;;;;;;3.43;3.20;;;;;;;;;;4892281;28;20445;-74
2023/08/16 04:34:57;;;;;;;3.67;2.80;;;;;;;;;;4894353;28;20489;-70
2023/08/16 04:37:23;;;;;;;2.43;2.43;;;;;;;;;;4893912;28;20445;-74
2023/08/16 04:39:48;;;;;;;2.90;2.70;;;;;;;;;;4889943;28;20452;-74
2023/08/16 04:42:15;;;;;;;2.60;2.50;;;;;;;;;;4892928;28;20903;-74
2023/08/16 04:44:41;;;;;;;3.20;3.00;;;;;;;;;;4893046;28;20445;-74
2023/08/16 04:47:07;;;;;;;2.60;2.40;;;;;;;;;;4893696;28;20521;-71
2023/08/16 04:49:33;;;;;;;2.80;2.60;;;;;;;;;;4893024;28;20429;-69
2023/08/16 04:51:59;;;;;;;3.07;2.90;;;;;;;;;;4893268;28;20429;-69
2023/08/16 04:54:25;;;;;;;3.13;3.03;;;;;;;;;;4893098;28;20446;-73
2023/08/16 04:56:52;;;;;;;3.50;2.23;;;;;;;;;;4893339;29;20450;-69
2023/08/16 04:59:18;;;;;;;3.00;2.80;;;;;;;;;;4891537;28;20832;-73
2023/08/16 05:01:44;;;;;;;3.80;3.50;;;;;;;;;;4893242;28;20422;-72
2023/08/16 05:04:10;;;;;;;3.03;2.83;;;;;;;;;;4892568;28;21013;-76
2023/08/16 05:06:36;;;;;;;2.63;2.53;;;;;;;;;;4893185;28;20529;-75
2023/08/16 05:09:03;;;;;;;3.90;2.67;;;;;;;;;;4892864;28;20441;-75
2023/08/16 05:11:30;;;;;;;3.00;2.90;;;;;;;;;;4892489;28;20798;-73
2023/08/16 05:13:56;;;;;;;2.97;2.77;;;;;;;;;;4892561;28;20437;-72
2023/08/16 05:16:22;;;;;;;4.73;2.87;;;;;;;;;;4891870;28;20900;-74
2023/08/16 05:18:48;;;;;;;2.57;2.47;;;;;;;;;;4892262;28;20484;-73
2023/08/16 05:21:14;;;;;;;5.20;5.00;;;;;;;;;;4892414;28;20446;-72
2023/08/16 05:23:40;;;;;;;5.83;3.13;;;;;;;;;;4892483;28;20479;-77
2023/08/16 05:26:06;;;;;;;3.63;3.33;;;;;;;;;;4892953;28;20441;-76
2023/08/16 05:28:32;;;;;;;3.50;2.83;;;;;;;;;;4892351;28;20981;-74
2023/08/16 05:31:10;;;;;;;3.80;2.63;;;;;;;;;;4890761;28;20488;-77
2023/08/16 05:33:37;;;;;;;3.57;2.43;;;;;;;;;;4892786;28;21323;-68
2023/08/16 05:36:03;;;;;;;4.23;2.60;;;;;;;;;;4892326;28;20493;-75
2023/08/16 05:38:29;;;;;;;5.73;2.90;;;;;;;;;;4892415;28;20438;-74
2023/08/16 05:40:55;;;;;;;2.87;2.67;;;;;;;;;;4892907;28;20433;-76
2023/08/16 05:43:21;;;;;;;3.30;3.00;;;;;;;;;;4891393;28;21094;-73
2023/08/16 05:45:47;;;;;;;3.07;2.80;;;;;;;;;;4890779;29;20429;-72
2023/08/16 05:48:13;;;;;;;3.43;3.10;;;;;;;;;;4891954;28;20468;-74
2023/08/16 05:50:41;;;;;;;3.03;2.93;;;;;;;;;;4891914;28;20421;-76
2023/08/16 05:53:09;;;;;;;3.10;3.00;;;;;;;;;;4890541;28;20524;-72
2023/08/16 05:55:35;;;;;;;2.00;1.87;;;;;;;;;;4891650;28;20528;-70
2023/08/16 05:58:01;;;;;;;6.63;2.47;;;;;;;;;;4892294;28;20844;-68
2023/08/16 06:00:27;;;;;;;2.50;2.30;;;;;;;;;;4895510;28;20231;-73
2023/08/16 06:02:53;;;;;;;2.70;2.60;;;;;;;;;;4890938;28;20476;-72
2023/08/16 06:05:19;;;;;;;3.13;2.80;;;;;;;;;;4892887;28;20469;-73
2023/08/16 06:07:46;;;;;;;3.40;3.10;;;;;;;;;;4892746;28;20418;-69
2023/08/16 06:10:12;;;;;;;3.20;3.00;;;;;;;;;;4891824;29;20546;-68
2023/08/16 06:12:38;;;;;;;3.53;2.43;;;;;;;;;;4890821;28;20453;-71
2023/08/16 06:15:11;;;;;;;4.30;2.33;;;;;;;;;;4892598;28;20469;-71
2023/08/16 06:17:37;;;;;;;5.67;3.07;;;;;;;;;;4892767;28;20524;-76
2023/08/16 06:20:03;;;;;;;2.40;2.40;;;;;;;;;;4892261;28;20941;-75
2023/08/16 06:22:29;;;;;;;2.47;2.47;;;;;;;;;;4891787;28;21000;-73
2023/08/16 06:24:55;;;;;;;3.20;3.00;;;;;;;;;;4892136;28;20441;-74
2023/08/16 06:27:21;;;;;;;12.20;3.30;;;;;;;;;;4890945;28;21334;-74
2023/08/16 06:29:47;;;;;;;2.87;2.63;;;;;;;;;;4891970;28;21285;-74
2023/08/16 06:32:13;;;;;;;2.53;2.50;;;;;;;;;;4891445;28;20445;-69
2023/08/16 06:34:39;;;;;;;2.70;2.63;;;;;;;;;;4890387;28;20513;-68
2023/08/16 06:37:05;;;;;;;2.90;2.70;;;;;;;;;;4891007;28;20499;-69
2023/08/16 06:39:31;;;;;;;3.23;2.83;;;;;;;;;;4890990;28;20193;-69
2023/08/16 06:41:57;;;;;;;6.10;2.80;;;;;;;;;;4891572;29;20460;-69
2023/08/16 06:44:24;;;;;;;2.50;2.40;;;;;;;;;;4891524;28;20442;-70
2023/08/16 06:46:50;;;;;;;3.57;3.00;;;;;;;;;;4891860;28;20457;-70
2023/08/16 06:49:16;;;;;;;3.33;3.03;;;;;;;;;;4891806;28;20495;-68
2023/08/16 06:51:42;;;;;;;1.83;1.83;;;;;;;;;;4891729;28;20438;-68
2023/08/16 06:54:08;;;;;;;3.93;3.00;;;;;;;;;;4889124;28;20441;-68
2023/08/16 06:56:34;;;;;;;4.53;3.27;;;;;;;;;;4891436;28;21079;-68
2023/08/16 06:59:00;;;;;;;4.10;3.80;;;;;;;;;;4892435;29;20422;-69
2023/08/16 07:01:26;;;;;;;2.33;2.33;;;;;;;;;;4891961;28;20934;-69
2023/08/16 07:03:52;;;;;;;2.57;2.30;;;;;;;;;;4890568;28;20437;-68
2023/08/16 07:06:19;;;;;;;2.60;2.60;;;;;;;;;;4891755;28;20984;-69
2023/08/16 07:08:45;;;;;;;3.33;3.10;;;;;;;;;;4891522;28;20445;-70
2023/08/16 07:11:11;;;;;;;2.73;2.53;;;;;;;;;;4890005;28;20449;-68
2023/08/16 07:13:37;;;;;;;3.20;3.00;;;;;;;;;;4891292;28;20487;-72
2023/08/16 07:16:03;;;;;;;2.77;2.67;;;;;;;;;;4892174;28;20496;-68
2023/08/16 07:18:29;;;;;;;3.47;2.43;;;;;;;;;;4891749;28;20469;-69
2023/08/16 07:20:54;;;;;;;3.27;2.10;;;;;;;;;;4891240;29;20445;-69
2023/08/16 07:23:21;;;;;;;2.60;2.40;;;;;;;;;;4891339;28;20447;-70
2023/08/16 07:25:47;;;;;;;5.43;1.90;;;;;;;;;;4892008;29;20426;-69
2023/08/16 07:28:13;;;;;;;3.93;3.10;;;;;;;;;;4891856;28;20429;-69
2023/08/16 07:30:39;;;;;;;2.50;2.40;;;;;;;;;;4891640;28;20489;-69
2023/08/16 07:33:05;;;;;;;3.23;3.13;;;;;;;;;;4891251;28;20489;-69
2023/08/16 07:35:31;;;;;;;4.30;2.60;;;;;;;;;;4889816;28;20848;-71
2023/08/16 07:37:57;;;;;;;4.73;2.67;;;;;;;;;;4890879;28;21528;-70
2023/08/16 07:40:23;;;;;;;8.33;2.80;;;;;;;;;;4892622;28;21615;-68
2023/08/16 07:42:49;;;;;;;3.67;3.37;;;;;;;;;;4891017;29;20440;-68
2023/08/16 07:45:15;;;;;;;3.40;2.00;;;;;;;;;;4890606;28;20445;-70
2023/08/16 07:47:41;;;;;;;3.60;2.77;;;;;;;;;;4890451;28;20437;-69
2023/08/16 07:50:07;;;;;;;22.17;2.60;;;;;;;;;;4890394;29;20849;-70
2023/08/16 07:52:33;;;;;;;3.40;3.10;;;;;;;;;;4890614;28;20422;-71
2023/08/16 07:54:59;;;;;;;4.47;2.83;;;;;;;;;;4890913;28;21063;-71
2023/08/16 07:57:25;;;;;;;3.30;2.43;;;;;;;;;;4891493;28;20472;-69
2023/08/16 07:59:51;;;;;;;2.43;2.43;;;;;;;;;;4890781;29;20530;-68
2023/08/16 08:02:17;;;;;;;2.73;2.63;;;;;;;;;;4889809;28;20480;-70
2023/08/16 08:04:44;;;;;;;3.87;3.00;;;;;;;;;;4891280;28;20437;-70
2023/08/16 08:07:11;;;;;;;3.27;3.07;;;;;;;;;;4889350;28;20429;-69
2023/08/16 08:09:37;;;;;;;2.77;2.67;;;;;;;;;;4891394;29;20802;-69
2023/08/16 08:12:03;;;;;;;2.87;2.77;;;;;;;;;;4890946;29;20914;-70
2023/08/16 08:14:29;;;;;;;3.00;2.70;;;;;;;;;;4893121;28;20434;-69
2023/08/16 08:16:56;;;;;;;5.30;2.43;;;;;;;;;;4892043;28;20468;-74
2023/08/16 08:19:22;;;;;;;3.50;2.67;;;;;;;;;;4894020;28;20481;-69
2023/08/16 08:21:48;;;;;;;4.27;2.77;;;;;;;;;;4893707;28;20484;-70
2023/08/16 08:24:15;;;;;;;3.00;2.90;;;;;;;;;;4893783;28;20870;-73
2023/08/16 08:26:41;;;;;;;3.27;2.87;;;;;;;;;;4892461;28;20450;-72
2023/08/16 08:29:07;;;;;;;5.57;2.70;;;;;;;;;;4895119;28;20964;-69
2023/08/16 08:31:33;;;;;;;7.00;3.80;;;;;;;;;;4893470;28;20438;-69
2023/08/16 08:34:00;;;;;;;3.20;3.10;;;;;;;;;;4893050;28;20803;-69
2023/08/16 08:36:26;;;;;;;4.50;4.10;;;;;;;;;;4892660;28;20252;-73
2023/08/16 08:38:52;;;;;;;3.00;2.63;;;;;;;;;;4894266;28;20942;-72
2023/08/16 08:41:21;;;;;;;4.20;4.00;;;;;;;;;;4894603;28;20437;-71
2023/08/16 08:43:48;;;;;;;2.87;2.63;;;;;;;;;;4893362;28;20426;-71
2023/08/16 08:46:14;;;;;;;3.73;3.53;;;;;;;;;;4893357;28;20560;-69
2023/08/16 08:48:40;;;;;;;4.00;3.60;;;;;;;;;;4892868;28;20517;-71
2023/08/16 08:51:06;;;;;;;2.90;2.70;;;;;;;;;;4895390;28;20957;-68
2023/08/16 08:53:32;;;;;;;2.53;2.43;;;;;;;;;;4892807;29;20437;-67
2023/08/16 08:56:02;;;;;;;3.60;3.30;;;;;;;;;;4893026;28;20493;-65
2023/08/16 08:58:28;;;;;;;2.77;2.67;;;;;;;;;;4892798;28;20528;-65
2023/08/16 09:00:54;;;;;;;3.70;2.90;;;;;;;;;;4893184;29;20540;-65
2023/08/16 09:03:22;;;;;;;1.93;1.93;;;;;;;;;;4891180;29;20588;-69
2023/08/16 09:05:51;;;;;;;3.53;3.23;;;;;;;;;;4895978;28;20520;-65
2023/08/16 09:08:17;;;;;;;3.07;2.97;;;;;;;;;;4893719;28;20942;-67
2023/08/16 09:10:43;;;;;;;3.07;2.97;;;;;;;;;;4893614;28;20446;-64
2023/08/16 09:13:12;;;;;;;1.70;1.60;;;;;;;;;;4894263;28;20449;-66
2023/08/16 09:15:39;;;;;;;7.50;3.10;;;;;;;;;;4894899;28;20485;-68
2023/08/16 09:18:12;;;;;;;3.00;3.00;;;;;;;;;;4893162;28;20481;-68
2023/08/16 09:20:38;;;;;;;3.13;2.93;;;;;;;;;;4893255;29;20500;-70
2023/08/16 09:23:05;;;;;;;3.10;2.80;;;;;;;;;;4892948;28;20430;-69
2023/08/16 09:25:31;;;;;;;13.67;3.67;;;;;;;;;;4892523;28;20466;-70
2023/08/16 09:27:57;;;;;;;5.77;4.00;;;;;;;;;;4893499;29;20484;-68
2023/08/16 09:30:27;;;;;;;7.80;3.63;;;;;;;;;;4892480;28;20453;-70
2023/08/16 09:32:53;;;;;;;2.63;2.50;;;;;;;;;;4891964;28;20446;-68
2023/08/16 09:35:19;;;;;;;2.30;2.30;;;;;;;;;;4891586;28;20833;-72
2023/08/16 09:37:45;;;;;;;3.43;3.00;;;;;;;;;;4892506;28;20933;-72
2023/08/16 09:40:12;;;;;;;4.27;3.30;;;;;;;;;;4892957;28;20433;-70
2023/08/16 09:42:38;;;;;;;6.70;3.67;;;;;;;;;;4891438;28;20441;-72
2023/08/16 09:45:07;;;;;;;10.90;3.57;;;;;;;;;;4891811;28;20466;-73
2023/08/16 09:47:34;;;;;;;4.67;2.87;;;;;;;;;;4892467;28;20513;-73
2023/08/16 09:50:00;;;;;;;3.07;2.53;;;;;;;;;;4891731;29;20497;-68
2023/08/16 09:52:28;;;;;;;5.20;3.37;;;;;;;;;;4892168;29;20437;-71
2023/08/16 09:54:55;;;;;;;4.93;3.10;;;;;;;;;;4892786;28;20588;-71
2023/08/16 09:57:22;;;;;;;2.67;2.57;;;;;;;;;;4892025;28;20930;-71
2023/08/16 09:59:49;;;;;;;2.70;2.70;;;;;;;;;;4892347;28;20909;-71
2023/08/16 10:02:16;;;;;;;2.83;2.73;;;;;;;;;;4892297;28;20422;-70
2023/08/16 10:04:42;;;;;;;3.30;3.03;;;;;;;;;;4891055;29;20481;-73
2023/08/16 10:07:08;;;;;;;7.50;3.10;;;;;;;;;;4894741;28;20836;-72
2023/08/16 10:09:34;;;;;;;3.23;2.93;;;;;;;;;;4890896;28;20465;-69
2023/08/16 10:12:04;;;;;;;2.90;2.80;;;;;;;;;;4891170;28;20550;-70
2023/08/16 10:14:30;;;;;;;5.83;2.30;;;;;;;;;;4891797;28;20910;-70
2023/08/16 10:17:03;;;;;;;2.93;2.80;;;;;;;;;;4891510;28;20449;-70
2023/08/16 10:19:31;;;;;;;6.60;3.10;;;;;;;;;;4891516;28;20485;-72
2023/08/16 10:21:58;;;;;;;2.27;2.00;;;;;;;;;;4892312;28;20663;-72
2023/08/16 10:24:24;;;;;;;1.87;1.87;;;;;;;;;;4891651;28;20784;-74
2023/08/16 10:26:51;;;;;;;4.10;3.20;;;;;;;;;;4890200;28;20930;-69
2023/08/16 10:29:22;;;;;;;1.87;1.87;;;;;;;;;;4892533;29;20916;-72
2023/08/16 10:31:49;;;;;;;8.83;3.50;;;;;;;;;;4891625;28;20428;-70
2023/08/16 10:34:16;;;;;;;4.00;2.70;;;;;;;;;;4890308;29;20648;-70
2023/08/16 10:36:42;;;;;;;3.80;2.97;;;;;;;;;;4889051;28;20500;-70
2023/08/16 10:39:08;;;;;;;2.87;2.80;;;;;;;;;;4889627;28;20441;-70
2023/08/16 10:41:41;;;;;;;11.97;4.00;;;;;;;;;;4889899;28;20896;-68
2023/08/16 10:44:07;;;;;;;3.10;2.90;;;;;;;;;;4887996;28;20533;-69
2023/08/16 10:46:37;;;;;;;2.87;2.80;;;;;;;;;;4891245;28;20446;-69
2023/08/16 10:49:08;;;;;;;3.63;3.33;;;;;;;;;;4891762;28;20442;-69
2023/08/16 10:51:44;;;;;;;4.23;2.70;;;;;;;;;;4889733;28;20446;-68
2023/08/16 10:54:10;;;;;;;4.10;3.33;;;;;;;;;;4891416;28;20971;-71
2023/08/16 10:56:38;;;;;;;3.20;3.07;;;;;;;;;;4890171;28;20488;-72
2023/08/16 10:59:07;;;;;;;3.60;3.30;;;;;;;;;;4890890;29;20843;-69
2023/08/16 11:01:34;;;;;;;3.17;2.97;;;;;;;;;;4891919;29;20920;-70
2023/08/16 11:04:02;;;;;;;3.90;2.97;;;;;;;;;;4890901;28;20438;-70
2023/08/16 11:06:29;;;;;;;3.00;2.80;;;;;;;;;;4890273;28;20445;-71
2023/08/16 11:08:55;;;;;;;3.03;3.03;;;;;;;;;;4889831;28;20445;-69
2023/08/16 11:11:21;;;;;;;2.97;2.50;;;;;;;;;;4890404;28;20488;-69
2023/08/16 11:13:47;;;;;;;3.47;3.03;;;;;;;;;;4890052;29;20445;-69
2023/08/16 11:16:13;;;;;;;3.83;3.33;;;;;;;;;;4890146;28;20501;-69
2023/08/16 11:18:41;;;;;;;3.80;2.97;;;;;;;;;;4890677;28;20572;-70
2023/08/16 11:21:07;;;;;;;2.77;2.63;;;;;;;;;;4891837;28;20461;-72
2023/08/16 11:23:39;;;;;;;3.57;3.27;;;;;;;;;;4891331;28;20434;-71
2023/08/16 11:26:05;;;;;;;3.07;2.97;;;;;;;;;;4887356;28;20457;-70
2023/08/16 11:28:32;;;;;;;2.77;2.47;;;;;;;;;;4889706;29;20469;-68
2023/08/16 11:30:58;;;;;;;2.47;2.27;;;;;;;;;;4890484;28;20461;-72
2023/08/16 11:33:25;;;;;;;2.87;2.87;;;;;;;;;;4888876;29;20453;-73
2023/08/16 11:35:53;;;;;;;8.17;2.90;;;;;;;;;;4890605;28;20726;-72
2023/08/16 11:38:19;;;;;;;5.10;3.63;;;;;;;;;;4889731;29;20518;-74
2023/08/16 11:40:48;;;;;;;3.33;3.10;;;;;;;;;;4892427;28;20483;-71
2023/08/16 11:43:14;;;;;;;3.60;3.40;;;;;;;;;;4890440;28;20441;-69
2023/08/16 11:45:40;;;;;;;2.90;2.90;;;;;;;;;;4890753;28;21028;-69
2023/08/16 11:48:06;;;;;;;3.50;3.20;;;;;;;;;;4895194;28;20445;-71
2023/08/16 11:50:34;;;;;;;9.47;3.40;;;;;;;;;;4893229;28;20937;-69
2023/08/16 11:53:01;;;;;;;8.37;3.40;;;;;;;;;;4894276;29;20834;-68
2023/08/16 11:55:29;;;;;;;6.70;2.97;;;;;;;;;;4893820;28;20476;-69
2023/08/16 11:58:01;;;;;;;2.70;2.57;;;;;;;;;;4894283;28;20453;-68
2023/08/16 12:00:29;;;;;;;3.57;3.47;;;;;;;;;;4893817;29;20427;-69
2023/08/16 12:02:55;;;;;;;3.40;3.10;;;;;;;;;;4893989;28;20443;-68
2023/08/16 12:05:21;;;;;;;6.83;3.57;;;;;;;;;;4893626;29;20945;-69
2023/08/16 12:07:51;;;;;;;3.30;3.10;;;;;;;;;;4894564;29;20426;-68
2023/08/16 12:10:27;;;;;;;3.63;3.30;;;;;;;;;;4894217;28;20436;-70
2023/08/16 12:12:56;;;;;;;3.37;3.17;;;;;;;;;;4893854;29;20460;-69
2023/08/16 12:15:23;;;;;;;3.80;3.50;;;;;;;;;;4893620;29;20489;-69
2023/08/16 12:17:50;;;;;;;4.83;3.27;;;;;;;;;;4894343;29;20462;-69
2023/08/16 12:20:16;;;;;;;4.10;2.90;;;;;;;;;;4893863;28;20905;-70
2023/08/16 12:22:42;;;;;;;4.00;3.00;;;;;;;;;;4894042;28;20425;-69
2023/08/16 12:25:08;;;;;;;3.03;3.03;;;;;;;;;;4893913;28;20434;-69
2023/08/16 12:27:34;;;;;;;3.37;3.27;;;;;;;;;;4894531;28;20441;-69
2023/08/16 12:30:00;;;;;;;3.17;3.07;;;;;;;;;;4892653;28;20421;-69
2023/08/16 12:32:26;;;;;;;3.40;3.30;;;;;;;;;;4893774;28;20524;-69
2023/08/16 12:34:52;;;;;;;2.93;2.73;;;;;;;;;;4892071;28;20508;-69
2023/08/16 12:37:18;;;;;;;13.20;2.43;;;;;;;;;;4893738;28;20450;-70
2023/08/16 12:39:44;;;;;;;3.30;3.20;;;;;;;;;;4892885;28;20440;-69
2023/08/16 12:42:10;;;;;;;3.43;3.20;;;;;;;;;;4893176;28;20457;-69
2023/08/16 12:44:36;;;;;;;3.80;3.57;;;;;;;;;;4891649;28;20938;-69
2023/08/16 12:47:02;;;;;;;3.13;2.93;;;;;;;;;;4893718;28;20445;-69
2023/08/16 12:49:28;;;;;;;2.93;2.93;;;;;;;;;;4893050;29;20269;-70
2023/08/16 12:51:54;;;;;;;2.60;2.50;;;;;;;;;;4892868;28;20861;-69
2023/08/16 12:54:21;;;;;;;7.90;3.63;;;;;;;;;;4892878;29;20426;-70
2023/08/16 12:56:47;;;;;;;2.17;2.10;;;;;;;;;;4893124;28;20525;-70
2023/08/16 12:59:13;;;;;;;4.03;3.73;;;;;;;;;;4892773;28;20438;-69
2023/08/16 13:01:39;;;;;;;3.90;3.60;;;;;;;;;;4892283;28;20968;-68
2023/08/16 13:04:05;;;;;;;10.93;3.17;;;;;;;;;;4892978;28;20480;-69
2023/08/16 13:06:31;;;;;;;4.53;4.20;;;;;;;;;;4892673;29;20417;-70
2023/08/16 13:08:57;;;;;;;4.20;3.90;;;;;;;;;;4892694;28;20434;-71
2023/08/16 13:11:23;;;;;;;3.60;3.30;;;;;;;;;;4892259;29;20508;-69
2023/08/16 13:13:49;;;;;;;3.70;3.63;;;;;;;;;;4892916;28;20942;-69
2023/08/16 13:16:15;;;;;;;4.43;3.70;;;;;;;;;;4893675;28;20488;-69
2023/08/16 13:18:41;;;;;;;6.03;2.70;;;;;;;;;;4891467;28;20551;-69
2023/08/16 13:21:10;;;;;;;3.73;3.23;;;;;;;;;;4892469;28;20490;-69
2023/08/16 13:23:36;;;;;;;4.23;3.30;;;;;;;;;;4893087;28;20426;-73
2023/08/16 13:26:02;;;;;;;2.97;2.83;;;;;;;;;;4892913;28;20961;-71
2023/08/16 13:28:28;;;;;;;9.33;3.87;;;;;;;;;;4891266;28;20529;-73
2023/08/16 13:30:54;;;;;;;3.47;3.30;;;;;;;;;;4890556;28;20201;-72
2023/08/16 13:33:20;;;;;;;4.23;3.63;;;;;;;;;;4892291;28;20456;-68
2023/08/16 13:35:46;;;;;;;6.80;3.80;;;;;;;;;;4890587;28;20551;-70
2023/08/16 13:38:13;;;;;;;3.77;3.67;;;;;;;;;;4891402;28;20515;-70
2023/08/16 13:40:40;;;;;;;5.27;3.53;;;;;;;;;;4893085;28;20444;-70
2023/08/16 13:43:05;;;;;;;5.43;3.77;;;;;;;;;;4893999;28;20800;-70
2023/08/16 13:45:31;;;;;;;4.27;3.97;;;;;;;;;;4891119;28;20989;-68
2023/08/16 13:47:57;;;;;;;3.20;3.10;;;;;;;;;;4892412;28;20535;-69
2023/08/16 13:50:24;;;;;;;4.07;3.80;;;;;;;;;;4891158;28;20446;-69
2023/08/16 13:52:50;;;;;;;3.80;3.50;;;;;;;;;;4892789;28;20465;-70
2023/08/16 13:55:17;;;;;;;4.50;4.23;;;;;;;;;;4893340;28;20557;-70
2023/08/16 13:57:43;;;;;;;4.53;3.83;;;;;;;;;;4893025;28;20434;-69
2023/08/16 14:00:09;;;;;;;3.67;3.47;;;;;;;;;;4892592;28;20457;-69
2023/08/16 14:02:42;;;;;;;3.47;3.27;;;;;;;;;;4892234;28;20469;-62
2023/08/16 14:05:08;;;;;;;3.67;3.37;;;;;;;;;;4889894;28;20453;-62
2023/08/16 14:07:34;;;;;;;4.13;3.90;;;;;;;;;;4891414;28;20442;-62
2023/08/16 14:10:00;;;;;;;3.23;3.13;;;;;;;;;;4892177;28;20446;-62
2023/08/16 14:12:27;;;;;;;3.80;3.60;;;;;;;;;;4892301;29;20449;-62
2023/08/16 14:14:52;;;;;;;3.63;3.07;;;;;;;;;;4892237;28;20224;-67
2023/08/16 14:17:19;;;;;;;3.17;2.97;;;;;;;;;;4892941;28;21012;-63
2023/08/16 14:19:45;;;;;;;3.53;3.33;;;;;;;;;;4891990;28;20445;-62
2023/08/16 14:22:11;;;;;;;4.30;4.10;;;;;;;;;;4892140;28;20460;-63
2023/08/16 14:24:37;;;;;;;3.80;3.70;;;;;;;;;;4892263;28;20465;-63
2023/08/16 14:27:03;;;;;;;4.77;3.40;;;;;;;;;;4892313;28;20437;-65
2023/08/16 14:29:29;;;;;;;3.47;3.37;;;;;;;;;;4892448;28;20539;-64
2023/08/16 14:31:55;;;;;;;3.87;3.50;;;;;;;;;;4892199;28;20812;-63
2023/08/16 14:34:21;;;;;;;3.97;3.87;;;;;;;;;;4892455;28;20430;-63
2023/08/16 14:36:47;;;;;;;3.40;3.20;;;;;;;;;;4891886;28;20906;-63
2023/08/16 14:39:13;;;;;;;4.43;3.60;;;;;;;;;;4891652;28;20438;-69